sensor_id;sensor_type;location;lat;lon;timestamp;pressure;altitude;pressure_sealevel;temperature;humidity
84318;BME280;74497;51.654;14.238;2023-12-20T00:01:32;100135.78;;;5.39;100.00
84318;BME280;74497;51.654;14.238;2023-12-20T00:03:58;100140.72;;;5.33;100.00
84318;BME280;74497;51.654;14.238;2023-12-20T00:06:23;100144.44;;;5.41;100.00
84318;BME280;74497;51.654;14.238;2023-12-20T00:08:49;100141.34;;;5.36;100.00
84318;BME280;74497;51.654;14.238;2023-12-20T00:11:15;100144.78;;;5.48;100.00
84318;BME280;74497;51.654;14.238;2023-12-20T00:13:40;100136.72;;;5.50;100.00
84318;BME280;74497;51.654;14.238;2023-12-20T00:16:06;100137.59;;;5.39;100.00
84318;BME280;74497;51.654;14.238;2023-12-20T00:18:32;100137.56;;;5.50;100.00
84318;BME280;74497;51.654;14.238;2023-12-20T00:20:57;100132.63;;;5.46;100.00
84318;BME280;74497;51.654;14.238;2023-12-20T00:23:23;100141.31;;;5.48;100.00
84318;BME280;74497;51.654;14.238;2023-12-20T00:25:49;100137.69;;;5.49;100.00
84318;BME280;74497;51.654;14.238;2023-12-20T00:28:15;100135.50;;;5.54;100.00
84318;BME280;74497;51.654;14.238;2023-12-20T00:30:40;100137.41;;;5.52;100.00
84318;BME280;74497;51.654;14.238;2023-12-20T00:33:06;100131.88;;;5.55;100.00
84318;BME280;74497;51.654;14.238;2023-12-20T00:35:31;100127.28;;;5.57;100.00
84318;BME280;74497;51.654;14.238;2023-12-20T00:37:58;100132.84;;;5.54;100.00
84318;BME280;74497;51.654;14.238;2023-12-20T00:40:25;100138.25;;;5.52;100.00
84318;BME280;74497;51.654;14.238;2023-12-20T00:42:50;100134.75;;;5.52;100.00
84318;BME280;74497;51.654;14.238;2023-12-20T00:45:16;100137.88;;;5.57;100.00
84318;BME280;74497;51.654;14.238;2023-12-20T00:47:42;100133.41;;;5.57;100.00
84318;BME280;74497;51.654;14.238;2023-12-20T00:50:08;100132.53;;;5.47;100.00
84318;BME280;74497;51.654;14.238;2023-12-20T00:52:34;100131.47;;;5.59;100.00
84318;BME280;74497;51.654;14.238;2023-12-20T00:55:00;100122.63;;;5.49;100.00
84318;BME280;74497;51.654;14.238;2023-12-20T00:57:26;100120.88;;;5.59;100.00
84318;BME280;74497;51.654;14.238;2023-12-20T00:59:51;100120.19;;;5.57;100.00
84318;BME280;74497;51.654;14.238;2023-12-20T01:02:17;100118.16;;;5.50;100.00
84318;BME280;74497;51.654;14.238;2023-12-20T01:04:43;100119.97;;;5.49;100.00
84318;BME280;74497;51.654;14.238;2023-12-20T01:07:08;100113.84;;;5.49;100.00
84318;BME280;74497;51.654;14.238;2023-12-20T01:09:34;100120.34;;;5.45;100.00
84318;BME280;74497;51.654;14.238;2023-12-20T01:12:00;100105.97;;;5.58;100.00
84318;BME280;74497;51.654;14.238;2023-12-20T01:14:25;100104.28;;;5.57;100.00
84318;BME280;74497;51.654;14.238;2023-12-20T01:16:51;100109.97;;;5.53;100.00
84318;BME280;74497;51.654;14.238;2023-12-20T01:19:17;100100.34;;;5.52;100.00
84318;BME280;74497;51.654;14.238;2023-12-20T01:21:42;100095.81;;;5.42;100.00
84318;BME280;74497;51.654;14.238;2023-12-20T01:24:08;100088.34;;;5.48;100.00
84318;BME280;74497;51.654;14.238;2023-12-20T01:26:34;100083.28;;;5.45;100.00
84318;BME280;74497;51.654;14.238;2023-12-20T01:29:00;100076.31;;;5.43;100.00
84318;BME280;74497;51.654;14.238;2023-12-20T01:31:26;100081.59;;;5.43;100.00
84318;BME280;74497;51.654;14.238;2023-12-20T01:33:53;100072.47;;;5.36;100.00
84318;BME280;74497;51.654;14.238;2023-12-20T01:36:18;100070.06;;;5.33;100.00
84318;BME280;74497;51.654;14.238;2023-12-20T01:38:45;100071.88;;;5.33;100.00
84318;BME280;74497;51.654;14.238;2023-12-20T01:41:10;100071.50;;;5.37;100.00
84318;BME280;74497;51.654;14.238;2023-12-20T01:43:36;100079.44;;;5.37;100.00
84318;BME280;74497;51.654;14.238;2023-12-20T01:46:02;100072.94;;;5.41;100.00
84318;BME280;74497;51.654;14.238;2023-12-20T01:48:29;100071.38;;;5.39;100.00
84318;BME280;74497;51.654;14.238;2023-12-20T01:50:55;100077.66;;;5.38;100.00
84318;BME280;74497;51.654;14.238;2023-12-20T01:53:23;100079.97;;;5.31;100.00
84318;BME280;74497;51.654;14.238;2023-12-20T01:55:50;100061.69;;;5.28;100.00
84318;BME280;74497;51.654;14.238;2023-12-20T01:58:18;100060.59;;;5.31;100.00
84318;BME280;74497;51.654;14.238;2023-12-20T02:00:44;100069.16;;;5.23;100.00
84318;BME280;74497;51.654;14.238;2023-12-20T02:03:11;100061.69;;;5.28;100.00
84318;BME280;74497;51.654;14.238;2023-12-20T02:05:37;100065.75;;;5.32;100.00
84318;BME280;74497;51.654;14.238;2023-12-20T02:08:07;100052.38;;;5.34;100.00
84318;BME280;74497;51.654;14.238;2023-12-20T02:10:34;100047.94;;;5.34;100.00
84318;BME280;74497;51.654;14.238;2023-12-20T02:13:00;100048.38;;;5.39;100.00
84318;BME280;74497;51.654;14.238;2023-12-20T02:15:28;100046.00;;;5.36;100.00
84318;BME280;74497;51.654;14.238;2023-12-20T02:17:54;100044.44;;;5.34;100.00
84318;BME280;74497;51.654;14.238;2023-12-20T02:20:20;100033.00;;;5.33;100.00
84318;BME280;74497;51.654;14.238;2023-12-20T02:22:46;100031.09;;;5.35;100.00
84318;BME280;74497;51.654;14.238;2023-12-20T02:25:15;100034.81;;;5.33;100.00
84318;BME280;74497;51.654;14.238;2023-12-20T02:27:40;100038.75;;;5.38;100.00
84318;BME280;74497;51.654;14.238;2023-12-20T02:30:06;100026.63;;;5.36;100.00
84318;BME280;74497;51.654;14.238;2023-12-20T02:32:32;100025.47;;;5.29;100.00
84318;BME280;74497;51.654;14.238;2023-12-20T02:34:58;100024.81;;;5.36;100.00
84318;BME280;74497;51.654;14.238;2023-12-20T02:37:24;100023.25;;;5.34;100.00
84318;BME280;74497;51.654;14.238;2023-12-20T02:39:50;100020.72;;;5.32;100.00
84318;BME280;74497;51.654;14.238;2023-12-20T02:42:15;100022.53;;;5.32;100.00
84318;BME280;74497;51.654;14.238;2023-12-20T02:44:41;100021.50;;;5.23;100.00
84318;BME280;74497;51.654;14.238;2023-12-20T02:47:07;100023.75;;;5.28;100.00
84318;BME280;74497;51.654;14.238;2023-12-20T02:49:33;100016.53;;;5.30;100.00
84318;BME280;74497;51.654;14.238;2023-12-20T02:51:58;100020.16;;;5.29;100.00
84318;BME280;74497;51.654;14.238;2023-12-20T02:54:24;100011.09;;;5.31;100.00
84318;BME280;74497;51.654;14.238;2023-12-20T02:56:50;100007.75;;;5.29;100.00
84318;BME280;74497;51.654;14.238;2023-12-20T02:59:15;100008.97;;;5.25;100.00
84318;BME280;74497;51.654;14.238;2023-12-20T03:01:43;100011.63;;;5.25;100.00
84318;BME280;74497;51.654;14.238;2023-12-20T03:04:09;100007.16;;;5.26;100.00
84318;BME280;74497;51.654;14.238;2023-12-20T03:06:35;100012.09;;;5.30;100.00
84318;BME280;74497;51.654;14.238;2023-12-20T03:09:00;100013.53;;;5.34;100.00
84318;BME280;74497;51.654;14.238;2023-12-20T03:11:27;99999.16;;;5.16;100.00
84318;BME280;74497;51.654;14.238;2023-12-20T03:13:53;99998.91;;;5.19;100.00
84318;BME280;74497;51.654;14.238;2023-12-20T03:16:18;99997.47;;;5.15;100.00
84318;BME280;74497;51.654;14.238;2023-12-20T03:18:44;99989.75;;;5.23;100.00
84318;BME280;74497;51.654;14.238;2023-12-20T03:21:10;99988.91;;;5.23;100.00
84318;BME280;74497;51.654;14.238;2023-12-20T03:23:36;99986.63;;;5.18;100.00
84318;BME280;74497;51.654;14.238;2023-12-20T03:26:01;99994.81;;;5.15;100.00
84318;BME280;74497;51.654;14.238;2023-12-20T03:28:27;99991.94;;;5.18;100.00
84318;BME280;74497;51.654;14.238;2023-12-20T03:30:53;99988.31;;;5.19;100.00
84318;BME280;74497;51.654;14.238;2023-12-20T03:33:19;99995.03;;;5.23;100.00
84318;BME280;74497;51.654;14.238;2023-12-20T03:35:44;99986.31;;;5.11;100.00
84318;BME280;74497;51.654;14.238;2023-12-20T03:38:10;99997.22;;;5.18;100.00
84318;BME280;74497;51.654;14.238;2023-12-20T03:40:36;99994.94;;;5.13;100.00
84318;BME280;74497;51.654;14.238;2023-12-20T03:43:02;99995.41;;;5.19;100.00
84318;BME280;74497;51.654;14.238;2023-12-20T03:45:27;99991.09;;;5.18;100.00
84318;BME280;74497;51.654;14.238;2023-12-20T03:47:53;99986.88;;;5.15;100.00
84318;BME280;74497;51.654;14.238;2023-12-20T03:50:22;99986.50;;;5.20;100.00
84318;BME280;74497;51.654;14.238;2023-12-20T03:52:48;99993.13;;;5.14;100.00
84318;BME280;74497;51.654;14.238;2023-12-20T03:55:14;99994.94;;;5.13;100.00
84318;BME280;74497;51.654;14.238;2023-12-20T03:57:40;99990.88;;;5.09;100.00
84318;BME280;74497;51.654;14.238;2023-12-20T04:00:07;100002.75;;;5.15;100.00
84318;BME280;74497;51.654;14.238;2023-12-20T04:02:39;100000.47;;;5.22;100.00
84318;BME280;74497;51.654;14.238;2023-12-20T04:05:06;99998.53;;;5.24;100.00
84318;BME280;74497;51.654;14.238;2023-12-20T04:07:32;100002.56;;;5.28;100.00
84318;BME280;74497;51.654;14.238;2023-12-20T04:09:58;99998.16;;;5.28;100.00
84318;BME280;74497;51.654;14.238;2023-12-20T04:12:24;99995.59;;;5.27;100.00
84318;BME280;74497;51.654;14.238;2023-12-20T04:14:50;99998.38;;;5.25;100.00
84318;BME280;74497;51.654;14.238;2023-12-20T04:17:16;99996.56;;;5.26;100.00
84318;BME280;74497;51.654;14.238;2023-12-20T04:19:44;99985.28;;;5.24;100.00
84318;BME280;74497;51.654;14.238;2023-12-20T04:22:10;99986.97;;;5.25;100.00
84318;BME280;74497;51.654;14.238;2023-12-20T04:24:36;99994.75;;;5.26;100.00
84318;BME280;74497;51.654;14.238;2023-12-20T04:27:02;99990.19;;;5.28;100.00
84318;BME280;74497;51.654;14.238;2023-12-20T04:29:28;99990.06;;;5.30;100.00
84318;BME280;74497;51.654;14.238;2023-12-20T04:31:53;99994.53;;;5.29;100.00
84318;BME280;74497;51.654;14.238;2023-12-20T04:34:19;99987.28;;;5.31;100.00
84318;BME280;74497;51.654;14.238;2023-12-20T04:36:45;99987.97;;;5.33;100.00
84318;BME280;74497;51.654;14.238;2023-12-20T04:39:12;99973.34;;;5.29;100.00
84318;BME280;74497;51.654;14.238;2023-12-20T04:41:38;99988.72;;;5.35;100.00
84318;BME280;74497;51.654;14.238;2023-12-20T04:44:05;99978.13;;;5.35;100.00
84318;BME280;74497;51.654;14.238;2023-12-20T04:46:31;99980.63;;;5.37;100.00
84318;BME280;74497;51.654;14.238;2023-12-20T04:48:57;99976.16;;;5.37;100.00
84318;BME280;74497;51.654;14.238;2023-12-20T04:51:23;99973.38;;;5.39;100.00
84318;BME280;74497;51.654;14.238;2023-12-20T04:53:49;99972.38;;;5.30;100.00
84318;BME280;74497;51.654;14.238;2023-12-20T04:56:14;99970.69;;;5.29;100.00
84318;BME280;74497;51.654;14.238;2023-12-20T04:58:41;99968.41;;;5.25;100.00
84318;BME280;74497;51.654;14.238;2023-12-20T05:01:08;99972.19;;;5.22;100.00
84318;BME280;74497;51.654;14.238;2023-12-20T05:03:34;99977.19;;;5.25;100.00
84318;BME280;74497;51.654;14.238;2023-12-20T05:05:59;99983.34;;;5.26;100.00
84318;BME280;74497;51.654;14.238;2023-12-20T05:08:25;99976.50;;;5.23;100.00
84318;BME280;74497;51.654;14.238;2023-12-20T05:10:54;99978.03;;;5.26;100.00
84318;BME280;74497;51.654;14.238;2023-12-20T05:13:20;99991.56;;;5.23;100.00
84318;BME280;74497;51.654;14.238;2023-12-20T05:15:46;99989.59;;;5.25;100.00
84318;BME280;74497;51.654;14.238;2023-12-20T05:18:12;99988.91;;;5.23;100.00
84318;BME280;74497;51.654;14.238;2023-12-20T05:20:39;99990.44;;;5.25;100.00
84318;BME280;74497;51.654;14.238;2023-12-20T05:23:04;99977.06;;;5.27;100.00
84318;BME280;74497;51.654;14.238;2023-12-20T05:25:30;99963.78;;;5.17;100.00
84318;BME280;74497;51.654;14.238;2023-12-20T05:27:56;99955.09;;;5.15;100.00
84318;BME280;74497;51.654;14.238;2023-12-20T05:30:22;99959.31;;;5.18;100.00
84318;BME280;74497;51.654;14.238;2023-12-20T05:32:47;99965.25;;;5.10;100.00
84318;BME280;74497;51.654;14.238;2023-12-20T05:35:13;99966.19;;;5.09;100.00
84318;BME280;74497;51.654;14.238;2023-12-20T05:37:39;99958.03;;;5.12;100.00
84318;BME280;74497;51.654;14.238;2023-12-20T05:40:05;99973.06;;;5.11;100.00
84318;BME280;74497;51.654;14.238;2023-12-20T05:42:31;99968.84;;;5.09;100.00
84318;BME280;74497;51.654;14.238;2023-12-20T05:44:57;99960.91;;;5.09;100.00
84318;BME280;74497;51.654;14.238;2023-12-20T05:47:22;99965.38;;;5.08;100.00
84318;BME280;74497;51.654;14.238;2023-12-20T05:49:48;99965.97;;;5.12;100.00
84318;BME280;74497;51.654;14.238;2023-12-20T05:52:13;99966.94;;;5.11;100.00
84318;BME280;74497;51.654;14.238;2023-12-20T05:54:40;99973.19;;;5.10;100.00
84318;BME280;74497;51.654;14.238;2023-12-20T05:57:05;99977.16;;;5.15;100.00
84318;BME280;74497;51.654;14.238;2023-12-20T05:59:31;99965.44;;;5.18;100.00
84318;BME280;74497;51.654;14.238;2023-12-20T06:01:57;99970.47;;;5.21;100.00
84318;BME280;74497;51.654;14.238;2023-12-20T06:04:22;99970.22;;;5.24;100.00
84318;BME280;74497;51.654;14.238;2023-12-20T06:06:48;99961.81;;;5.19;100.00
84318;BME280;74497;51.654;14.238;2023-12-20T06:09:14;99955.97;;;5.15;100.00
84318;BME280;74497;51.654;14.238;2023-12-20T06:11:42;99953.44;;;5.14;100.00
84318;BME280;74497;51.654;14.238;2023-12-20T06:14:07;99958.47;;;5.17;100.00
84318;BME280;74497;51.654;14.238;2023-12-20T06:16:33;99951.50;;;5.16;100.00
84318;BME280;74497;51.654;14.238;2023-12-20T06:18:59;99950.09;;;5.12;100.00
84318;BME280;74497;51.654;14.238;2023-12-20T06:21:25;99952.72;;;5.12;100.00
84318;BME280;74497;51.654;14.238;2023-12-20T06:23:50;99953.19;;;5.17;100.00
84318;BME280;74497;51.654;14.238;2023-12-20T06:26:16;99961.97;;;5.18;100.00
84318;BME280;74497;51.654;14.238;2023-12-20T06:28:42;99962.81;;;5.18;100.00
84318;BME280;74497;51.654;14.238;2023-12-20T06:31:08;99956.28;;;5.22;100.00
84318;BME280;74497;51.654;14.238;2023-12-20T06:33:34;99966.28;;;5.19;100.00
84318;BME280;74497;51.654;14.238;2023-12-20T06:36:00;99962.53;;;5.21;100.00
84318;BME280;74497;51.654;14.238;2023-12-20T06:38:25;99973.13;;;5.21;100.00
84318;BME280;74497;51.654;14.238;2023-12-20T06:40:51;99961.59;;;5.22;100.00
84318;BME280;74497;51.654;14.238;2023-12-20T06:43:16;99960.16;;;5.18;100.00
84318;BME280;74497;51.654;14.238;2023-12-20T06:45:42;99962.84;;;5.07;100.00
84318;BME280;74497;51.654;14.238;2023-12-20T06:48:08;99971.50;;;5.09;100.00
84318;BME280;74497;51.654;14.238;2023-12-20T06:50:34;99971.31;;;5.01;100.00
84318;BME280;74497;51.654;14.238;2023-12-20T06:52:59;99966.00;;;5.01;100.00
84318;BME280;74497;51.654;14.238;2023-12-20T06:55:25;99967.69;;;5.02;100.00
84318;BME280;74497;51.654;14.238;2023-12-20T06:57:52;99966.13;;;4.99;100.00
84318;BME280;74497;51.654;14.238;2023-12-20T07:00:17;99969.44;;;4.92;100.00
84318;BME280;74497;51.654;14.238;2023-12-20T07:02:45;99976.63;;;4.89;100.00
84318;BME280;74497;51.654;14.238;2023-12-20T07:05:16;99975.22;;;4.85;100.00
84318;BME280;74497;51.654;14.238;2023-12-20T07:07:42;99975.94;;;4.87;100.00
84318;BME280;74497;51.654;14.238;2023-12-20T07:10:08;99974.25;;;4.86;100.00
84318;BME280;74497;51.654;14.238;2023-12-20T07:12:33;99968.25;;;4.84;100.00
84318;BME280;74497;51.654;14.238;2023-12-20T07:14:59;99968.81;;;4.88;100.00
84318;BME280;74497;51.654;14.238;2023-12-20T07:17:25;99967.03;;;4.88;100.00
84318;BME280;74497;51.654;14.238;2023-12-20T07:19:50;99973.28;;;4.87;100.00
84318;BME280;74497;51.654;14.238;2023-12-20T07:22:16;99979.19;;;4.91;100.00
84318;BME280;74497;51.654;14.238;2023-12-20T07:24:42;99976.53;;;4.91;100.00
84318;BME280;74497;51.654;14.238;2023-12-20T07:27:07;99979.75;;;4.95;100.00
84318;BME280;74497;51.654;14.238;2023-12-20T07:29:33;99974.09;;;4.99;100.00
84318;BME280;74497;51.654;14.238;2023-12-20T07:31:59;99965.31;;;4.99;100.00
84318;BME280;74497;51.654;14.238;2023-12-20T07:34:24;99958.25;;;4.88;100.00
84318;BME280;74497;51.654;14.238;2023-12-20T07:36:50;99960.00;;;4.78;100.00
84318;BME280;74497;51.654;14.238;2023-12-20T07:39:16;99968.03;;;4.76;100.00
84318;BME280;74497;51.654;14.238;2023-12-20T07:41:41;99965.00;;;4.81;100.00
84318;BME280;74497;51.654;14.238;2023-12-20T07:44:07;99969.34;;;4.82;100.00
84318;BME280;74497;51.654;14.238;2023-12-20T07:46:33;99968.25;;;4.84;100.00
84318;BME280;74497;51.654;14.238;2023-12-20T07:48:58;99958.28;;;4.77;100.00
84318;BME280;74497;51.654;14.238;2023-12-20T07:51:24;99958.78;;;4.71;100.00
84318;BME280;74497;51.654;14.238;2023-12-20T07:53:51;99948.94;;;4.73;100.00
84318;BME280;74497;51.654;14.238;2023-12-20T07:56:18;99953.25;;;4.74;100.00
84318;BME280;74497;51.654;14.238;2023-12-20T07:58:45;99957.94;;;4.70;100.00
84318;BME280;74497;51.654;14.238;2023-12-20T08:01:11;99953.50;;;4.71;100.00
84318;BME280;74497;51.654;14.238;2023-12-20T08:03:38;99955.69;;;4.66;100.00
84318;BME280;74497;51.654;14.238;2023-12-20T08:06:04;99942.47;;;4.66;100.00
84318;BME280;74497;51.654;14.238;2023-12-20T08:08:30;99947.47;;;4.80;100.00
84318;BME280;74497;51.654;14.238;2023-12-20T08:10:56;99944.50;;;4.94;100.00
84318;BME280;74497;51.654;14.238;2023-12-20T08:13:24;99945.03;;;5.09;100.00
84318;BME280;74497;51.654;14.238;2023-12-20T08:15:52;99935.94;;;5.23;100.00
84318;BME280;74497;51.654;14.238;2023-12-20T08:18:18;99946.59;;;5.32;100.00
84318;BME280;74497;51.654;14.238;2023-12-20T08:20:46;99943.28;;;5.40;100.00
84318;BME280;74497;51.654;14.238;2023-12-20T08:23:13;99939.69;;;5.41;100.00
84318;BME280;74497;51.654;14.238;2023-12-20T08:25:38;99949.41;;;5.40;100.00
84318;BME280;74497;51.654;14.238;2023-12-20T08:28:04;99949.00;;;5.35;100.00
84318;BME280;74497;51.654;14.238;2023-12-20T08:30:30;99937.44;;;5.36;100.00
84318;BME280;74497;51.654;14.238;2023-12-20T08:32:57;99935.34;;;5.19;100.00
84318;BME280;74497;51.654;14.238;2023-12-20T08:35:24;99925.03;;;5.16;100.00
84318;BME280;74497;51.654;14.238;2023-12-20T08:37:50;99930.25;;;5.06;100.00
84318;BME280;74497;51.654;14.238;2023-12-20T08:40:16;99929.94;;;5.21;100.00
84318;BME280;74497;51.654;14.238;2023-12-20T08:42:41;99931.34;;;5.25;100.00
84318;BME280;74497;51.654;14.238;2023-12-20T08:45:07;99929.31;;;5.28;100.00
84318;BME280;74497;51.654;14.238;2023-12-20T08:47:33;99923.59;;;5.12;100.00
84318;BME280;74497;51.654;14.238;2023-12-20T08:49:59;99925.22;;;5.24;100.00
84318;BME280;74497;51.654;14.238;2023-12-20T08:52:25;99928.72;;;5.25;100.00
84318;BME280;74497;51.654;14.238;2023-12-20T08:54:53;99920.31;;;5.20;100.00
84318;BME280;74497;51.654;14.238;2023-12-20T08:57:25;99930.66;;;5.23;100.00
84318;BME280;74497;51.654;14.238;2023-12-20T08:59:51;99925.28;;;5.13;100.00
84318;BME280;74497;51.654;14.238;2023-12-20T09:02:17;99921.97;;;5.21;100.00
84318;BME280;74497;51.654;14.238;2023-12-20T09:04:43;99922.72;;;5.23;100.00
84318;BME280;74497;51.654;14.238;2023-12-20T09:07:25;99917.81;;;5.18;100.00
84318;BME280;74497;51.654;14.238;2023-12-20T09:09:52;99911.81;;;5.16;100.00
84318;BME280;74497;51.654;14.238;2023-12-20T09:12:19;99919.28;;;5.11;100.00
84318;BME280;74497;51.654;14.238;2023-12-20T09:14:46;99920.44;;;5.18;100.00
84318;BME280;74497;51.654;14.238;2023-12-20T09:17:12;99912.44;;;5.29;100.00
84318;BME280;74497;51.654;14.238;2023-12-20T09:19:38;99924.63;;;5.41;100.00
84318;BME280;74497;51.654;14.238;2023-12-20T09:22:05;99929.94;;;5.41;100.00
84318;BME280;74497;51.654;14.238;2023-12-20T09:24:30;99923.38;;;5.46;100.00
84318;BME280;74497;51.654;14.238;2023-12-20T09:26:56;99929.66;;;5.45;100.00
84318;BME280;74497;51.654;14.238;2023-12-20T09:29:22;99924.38;;;5.45;100.00
84318;BME280;74497;51.654;14.238;2023-12-20T09:31:48;99925.19;;;5.45;100.00
84318;BME280;74497;51.654;14.238;2023-12-20T09:34:15;99917.13;;;5.47;100.00
84318;BME280;74497;51.654;14.238;2023-12-20T09:36:41;99914.13;;;5.30;100.00
84318;BME280;74497;51.654;14.238;2023-12-20T09:39:13;99918.19;;;5.34;100.00
84318;BME280;74497;51.654;14.238;2023-12-20T09:41:42;99906.09;;;5.41;100.00
84318;BME280;74497;51.654;14.238;2023-12-20T09:44:13;99898.16;;;5.41;100.00
84318;BME280;74497;51.654;14.238;2023-12-20T09:46:43;99893.28;;;5.47;100.00
84318;BME280;74497;51.654;14.238;2023-12-20T09:49:10;99902.09;;;5.47;100.00
84318;BME280;74497;51.654;14.238;2023-12-20T09:51:36;99888.13;;;5.45;100.00
84318;BME280;74497;51.654;14.238;2023-12-20T09:54:05;99883.72;;;5.55;100.00
84318;BME280;74497;51.654;14.238;2023-12-20T09:56:31;99883.75;;;5.65;100.00
84318;BME280;74497;51.654;14.238;2023-12-20T09:58:57;99881.50;;;5.60;100.00
84318;BME280;74497;51.654;14.238;2023-12-20T10:01:36;99881.94;;;5.65;100.00
84318;BME280;74497;51.654;14.238;2023-12-20T10:04:06;99880.41;;;5.63;100.00
84318;BME280;74497;51.654;14.238;2023-12-20T10:06:39;99876.47;;;5.57;100.00
84318;BME280;74497;51.654;14.238;2023-12-20T10:09:05;99878.97;;;5.59;100.00
84318;BME280;74497;51.654;14.238;2023-12-20T10:11:31;99887.50;;;5.62;100.00
84318;BME280;74497;51.654;14.238;2023-12-20T10:14:00;99867.38;;;5.50;100.00
84318;BME280;74497;51.654;14.238;2023-12-20T10:16:27;99867.69;;;5.57;100.00
84318;BME280;74497;51.654;14.238;2023-12-20T10:18:54;99865.63;;;5.60;100.00
84318;BME280;74497;51.654;14.238;2023-12-20T10:21:20;99855.88;;;5.61;100.00
84318;BME280;74497;51.654;14.238;2023-12-20T10:23:46;99846.94;;;5.72;100.00
84318;BME280;74497;51.654;14.238;2023-12-20T10:26:22;99857.84;;;5.68;100.00
84318;BME280;74497;51.654;14.238;2023-12-20T10:28:56;99859.78;;;5.66;100.00
84318;BME280;74497;51.654;14.238;2023-12-20T10:31:32;99856.47;;;5.74;100.00
84318;BME280;74497;51.654;14.238;2023-12-20T10:33:59;99846.13;;;5.71;100.00
84318;BME280;74497;51.654;14.238;2023-12-20T10:36:26;99846.94;;;5.72;100.00
84318;BME280;74497;51.654;14.238;2023-12-20T10:38:53;99843.22;;;5.84;100.00
84318;BME280;74497;51.654;14.238;2023-12-20T10:43:51;99826.78;;;5.90;100.00
84318;BME280;74497;51.654;14.238;2023-12-20T10:46:19;99826.56;;;5.93;100.00
84318;BME280;74497;51.654;14.238;2023-12-20T10:48:46;99820.94;;;5.86;100.00
84318;BME280;74497;51.654;14.238;2023-12-20T10:51:14;99822.09;;;5.93;100.00
84318;BME280;74497;51.654;14.238;2023-12-20T10:53:42;99816.94;;;6.02;100.00
84318;BME280;74497;51.654;14.238;2023-12-20T10:56:10;99806.47;;;6.00;100.00
84318;BME280;74497;51.654;14.238;2023-12-20T10:58:41;99810.88;;;5.90;100.00
84318;BME280;74497;51.654;14.238;2023-12-20T11:01:08;99807.53;;;5.88;100.00
84318;BME280;74497;51.654;14.238;2023-12-20T11:03:35;99801.19;;;6.00;100.00
84318;BME280;74497;51.654;14.238;2023-12-20T11:06:26;99785.41;;;6.08;100.00
84318;BME280;74497;51.654;14.238;2023-12-20T11:11:39;99785.97;;;6.21;100.00
84318;BME280;74497;51.654;14.238;2023-12-20T11:14:08;99787.09;;;6.38;100.00
84318;BME280;74497;51.654;14.238;2023-12-20T11:16:38;99789.63;;;6.30;100.00
84318;BME280;74497;51.654;14.238;2023-12-20T11:19:05;99777.03;;;6.52;100.00
84318;BME280;74497;51.654;14.238;2023-12-20T11:21:33;99773.41;;;6.53;100.00
84318;BME280;74497;51.654;14.238;2023-12-20T11:23:59;99771.72;;;6.52;100.00
84318;BME280;74497;51.654;14.238;2023-12-20T11:26:29;99768.53;;;6.29;100.00
84318;BME280;74497;51.654;14.238;2023-12-20T11:32:00;99759.59;;;6.20;100.00
84318;BME280;74497;51.654;14.238;2023-12-20T11:34:28;99746.34;;;6.20;100.00
84318;BME280;74497;51.654;14.238;2023-12-20T11:36:58;99749.25;;;6.17;100.00
84318;BME280;74497;51.654;14.238;2023-12-20T11:39:26;99739.09;;;6.12;100.00
84318;BME280;74497;51.654;14.238;2023-12-20T11:41:54;99731.28;;;6.11;100.00
84318;BME280;74497;51.654;14.238;2023-12-20T11:44:21;99737.41;;;6.21;100.00
84318;BME280;74497;51.654;14.238;2023-12-20T11:46:47;99728.34;;;6.23;100.00
84318;BME280;74497;51.654;14.238;2023-12-20T11:49:13;99728.75;;;6.29;100.00
84318;BME280;74497;51.654;14.238;2023-12-20T11:51:42;99726.78;;;6.40;100.00
84318;BME280;74497;51.654;14.238;2023-12-20T11:54:09;99727.34;;;6.34;100.00
84318;BME280;74497;51.654;14.238;2023-12-20T11:56:36;99734.06;;;6.38;100.00
84318;BME280;74497;51.654;14.238;2023-12-20T11:59:02;99716.47;;;6.37;100.00
84318;BME280;74497;51.654;14.238;2023-12-20T12:01:28;99715.47;;;6.38;100.00
84318;BME280;74497;51.654;14.238;2023-12-20T12:04:06;99720.09;;;6.36;100.00
84318;BME280;74497;51.654;14.238;2023-12-20T12:06:32;99718.56;;;6.43;100.00
84318;BME280;74497;51.654;14.238;2023-12-20T12:08:58;99703.75;;;6.41;100.00
84318;BME280;74497;51.654;14.238;2023-12-20T12:11:24;99714.50;;;6.39;100.00
84318;BME280;74497;51.654;14.238;2023-12-20T12:13:50;99692.88;;;6.34;100.00
84318;BME280;74497;51.654;14.238;2023-12-20T12:16:22;99709.03;;;6.41;100.00
84318;BME280;74497;51.654;14.238;2023-12-20T12:18:57;99703.31;;;6.36;100.00
84318;BME280;74497;51.654;14.238;2023-12-20T12:21:24;99696.09;;;6.38;100.00
84318;BME280;74497;51.654;14.238;2023-12-20T12:23:50;99687.69;;;6.42;100.00
84318;BME280;74497;51.654;14.238;2023-12-20T12:26:16;99697.75;;;6.39;100.00
84318;BME280;74497;51.654;14.238;2023-12-20T12:28:42;99688.13;;;6.38;100.00
84318;BME280;74497;51.654;14.238;2023-12-20T12:31:14;99683.66;;;6.38;100.00
84318;BME280;74497;51.654;14.238;2023-12-20T12:33:41;99683.09;;;6.35;100.00
84318;BME280;74497;51.654;14.238;2023-12-20T12:36:07;99672.22;;;6.38;100.00
84318;BME280;74497;51.654;14.238;2023-12-20T12:38:33;99682.38;;;6.42;100.00
84318;BME280;74497;51.654;14.238;2023-12-20T12:41:00;99654.06;;;6.43;100.00
84318;BME280;74497;51.654;14.238;2023-12-20T12:43:26;99652.09;;;6.45;100.00
84318;BME280;74497;51.654;14.238;2023-12-20T12:45:51;99644.28;;;6.43;100.00
84318;BME280;74497;51.654;14.238;2023-12-20T12:48:17;99656.16;;;6.39;100.00
84318;BME280;74497;51.654;14.238;2023-12-20T12:50:43;99646.34;;;6.49;100.00
84318;BME280;74497;51.654;14.238;2023-12-20T12:53:09;99646.38;;;6.40;100.00